createdAt,value
2018-05-09T00:00:15.442Z,44.89
2018-05-09T00:01:15.439Z,44.54
2018-05-09T00:02:15.443Z,44.67
2018-05-09T00:03:15.452Z,44.72
2018-05-09T00:04:15.427Z,44.74
2018-05-09T00:05:15.467Z,44.54
2018-05-09T00:06:15.816Z,44.64
2018-05-09T00:07:15.418Z,44.71
2018-05-09T00:08:15.496Z,44.41
2018-05-09T00:09:15.436Z,44.6
2018-05-09T00:10:15.447Z,44.47
2018-05-09T00:11:15.442Z,44.61
2018-05-09T00:12:15.437Z,44.45
2018-05-09T00:13:15.452Z,44.77
2018-05-09T00:14:15.536Z,44.66
2018-05-09T00:15:15.439Z,44.75
2018-05-09T00:16:15.863Z,44.64
2018-05-09T00:17:15.585Z,44.81
2018-05-09T00:18:15.452Z,44.7
2018-05-09T00:19:15.456Z,44.68
2018-05-09T00:20:15.433Z,44.44
2018-05-09T00:21:15.442Z,44.82
2018-05-09T00:22:15.444Z,44.78
2018-05-09T00:23:15.484Z,44.68
2018-05-09T00:24:15.440Z,44.68
2018-05-09T00:25:15.428Z,44.69
2018-05-09T00:26:15.462Z,44.93
2018-05-09T00:27:15.444Z,44.76
2018-05-09T00:28:15.445Z,44.89
2018-05-09T00:29:15.460Z,44.8
2018-05-09T00:30:15.460Z,44.81
2018-05-09T00:31:15.669Z,44.8
2018-05-09T00:32:15.443Z,44.63
2018-05-09T00:33:15.480Z,44.66
2018-05-09T00:34:15.465Z,44.85
2018-05-09T00:35:15.450Z,44.89
2018-05-09T00:36:15.430Z,44.85
2018-05-09T00:37:15.433Z,44.86
2018-05-09T00:38:15.447Z,44.69
2018-05-09T00:39:15.459Z,44.79
2018-05-09T00:40:15.456Z,44.95
2018-05-09T00:41:15.439Z,44.57
2018-05-09T00:42:15.463Z,44.92
2018-05-09T00:43:15.534Z,44.9
2018-05-09T00:44:15.483Z,44.99
2018-05-09T00:45:15.469Z,44.85
2018-05-09T00:46:15.477Z,44.9
2018-05-09T00:47:15.473Z,44.89
2018-05-09T00:48:15.760Z,45.02
2018-05-09T00:49:15.476Z,44.95
2018-05-09T00:50:15.781Z,45.18
2018-05-09T00:51:15.462Z,45.12
2018-05-09T00:52:15.459Z,45.11
2018-05-09T00:53:15.845Z,45.26
2018-05-09T00:54:15.623Z,45.16
2018-05-09T00:55:15.523Z,45.1
2018-05-09T00:56:15.506Z,45.35
2018-05-09T00:57:15.437Z,45.59
2018-05-09T00:58:15.479Z,45.15
2018-05-09T00:59:15.490Z,45.57
2018-05-09T01:00:15.470Z,45.54
2018-05-09T01:01:15.483Z,45.61
2018-05-09T01:02:15.484Z,45.71
2018-05-09T01:03:15.532Z,45.59
2018-05-09T01:04:15.486Z,45.78
2018-05-09T01:05:15.507Z,45.66
2018-05-09T01:06:15.495Z,45.58
2018-05-09T01:07:15.490Z,45.62
2018-05-09T01:08:15.487Z,45.59
2018-05-09T01:09:15.467Z,45.68
2018-05-09T01:10:15.497Z,45.79
2018-05-09T01:11:15.515Z,45.83
2018-05-09T01:12:15.517Z,45.83
2018-05-09T01:13:15.495Z,45.78
2018-05-09T01:14:15.468Z,46.01
2018-05-09T01:15:15.568Z,45.62
2018-05-09T01:16:15.553Z,45.78
2018-05-09T01:17:15.477Z,45.77
2018-05-09T01:18:15.527Z,45.8
2018-05-09T01:19:15.566Z,45.96
2018-05-09T01:20:15.498Z,46
2018-05-09T01:21:15.502Z,45.94
2018-05-09T01:22:15.495Z,45.83
2018-05-09T01:23:15.606Z,45.94
2018-05-09T01:24:15.508Z,45.67
2018-05-09T01:25:15.536Z,46
2018-05-09T01:26:15.807Z,46.14
2018-05-09T01:27:15.484Z,46.11
2018-05-09T01:28:15.487Z,46.06
2018-05-09T01:29:15.505Z,46.11
2018-05-09T01:30:15.474Z,46.19
2018-05-09T01:31:15.494Z,46.36
2018-05-09T01:32:15.519Z,45.94
2018-05-09T01:33:15.525Z,46.34
2018-05-09T01:34:15.510Z,46.38
2018-05-09T01:35:15.516Z,46.21
2018-05-09T01:36:15.559Z,46.11
2018-05-09T01:37:15.522Z,46.51
2018-05-09T01:38:15.571Z,46.31
2018-05-09T01:39:15.531Z,46.21
2018-05-09T01:40:15.556Z,46.53
2018-05-09T01:41:15.515Z,46.2
2018-05-09T01:42:15.571Z,46.57
2018-05-09T01:43:15.538Z,46.4
2018-05-09T01:44:15.501Z,46.6
2018-05-09T01:45:15.523Z,46.55
2018-05-09T01:46:15.531Z,46.77
2018-05-09T01:47:15.531Z,46.77
2018-05-09T01:48:15.532Z,46.78
2018-05-09T01:49:15.691Z,46.67
2018-05-09T01:50:15.539Z,46.87
2018-05-09T01:51:15.558Z,46.8
2018-05-09T01:52:15.527Z,46.59
2018-05-09T01:53:15.754Z,46.81
2018-05-09T01:54:15.552Z,46.74
2018-05-09T01:55:15.580Z,46.77
2018-05-09T01:56:15.559Z,46.75
2018-05-09T01:57:15.521Z,46.74
2018-05-09T01:58:15.487Z,46.64
2018-05-09T01:59:15.502Z,46.78
2018-05-09T02:00:15.516Z,46.82
2018-05-09T02:01:15.506Z,46.61
2018-05-09T02:02:15.536Z,46.63
2018-05-09T02:03:15.535Z,46.8
2018-05-09T02:04:15.575Z,46.94
2018-05-09T02:05:15.530Z,46.78
2018-05-09T02:06:15.503Z,46.93
2018-05-09T02:07:15.553Z,46.94
2018-05-09T02:08:15.525Z,46.9
2018-05-09T02:09:15.525Z,46.99
2018-05-09T02:10:15.573Z,46.88
2018-05-09T02:11:15.573Z,47.03
2018-05-09T02:12:15.516Z,47.2
2018-05-09T02:13:15.500Z,47.18
2018-05-09T02:14:15.554Z,47.27
2018-05-09T02:15:15.538Z,47.24
2018-05-09T02:16:15.518Z,47.38
2018-05-09T02:17:15.552Z,47.63
2018-05-09T02:18:15.529Z,47.14
2018-05-09T02:19:15.543Z,47.62
2018-05-09T02:20:15.703Z,47.83
2018-05-09T02:21:15.702Z,47.52
2018-05-09T02:22:15.537Z,47.57
2018-05-09T02:23:15.579Z,47.59
2018-05-09T02:24:15.516Z,47.53
2018-05-09T02:25:15.533Z,47.9
2018-05-09T02:26:15.528Z,47.97
2018-05-09T02:27:15.535Z,47.64
2018-05-09T02:28:15.527Z,48.07
2018-05-09T02:29:15.562Z,47.88
2018-05-09T02:30:15.613Z,48.04
2018-05-09T02:31:16.586Z,48.02
2018-05-09T02:32:15.657Z,48.15
2018-05-09T02:33:15.639Z,48
2018-05-09T02:34:15.569Z,48.01
2018-05-09T02:35:15.618Z,48.09
2018-05-09T02:36:15.594Z,47.76
2018-05-09T02:37:15.602Z,48.05
2018-05-09T02:38:15.607Z,48.12
2018-05-09T02:39:15.614Z,48.26
2018-05-09T02:40:15.625Z,48.36
2018-05-09T02:41:15.637Z,48.41
2018-05-09T02:42:15.602Z,48.6
2018-05-09T02:43:16.251Z,48.5
2018-05-09T02:44:15.606Z,48.61
2018-05-09T02:45:15.691Z,48.57
2018-05-09T02:46:15.637Z,48.57
2018-05-09T02:47:15.729Z,48.78
2018-05-09T02:48:15.607Z,48.77
2018-05-09T02:49:15.701Z,48.92
2018-05-09T02:50:15.726Z,48.49
2018-05-09T02:51:15.733Z,48.61
2018-05-09T02:52:15.628Z,48.61
2018-05-09T02:53:15.602Z,48.83
2018-05-09T02:54:15.635Z,48.54
2018-05-09T02:55:15.786Z,48.65
2018-05-09T02:56:15.761Z,48.98
2018-05-09T02:57:15.731Z,49.15
2018-05-09T02:58:15.787Z,49.02
2018-05-09T02:59:15.602Z,49.07
2018-05-09T03:00:15.683Z,48.98
2018-05-09T03:01:15.627Z,49.2
2018-05-09T03:02:15.679Z,49.25
2018-05-09T03:03:15.633Z,48.96
2018-05-09T03:04:15.629Z,49.3
2018-05-09T03:05:15.621Z,49.28
2018-05-09T03:06:15.653Z,49.2
2018-05-09T03:07:15.632Z,49.03
2018-05-09T03:08:15.647Z,48.89
2018-05-09T03:09:15.744Z,49.2
2018-05-09T03:10:15.658Z,49.14
2018-05-09T03:11:15.639Z,48.99
2018-05-09T03:12:15.634Z,49.35
2018-05-09T03:13:15.641Z,49.43
2018-05-09T03:14:15.619Z,49.32
2018-05-09T03:15:15.722Z,49.37
2018-05-09T03:16:15.661Z,49.56
2018-05-09T03:17:15.810Z,49.5
2018-05-09T03:18:15.616Z,49.43
2018-05-09T03:19:15.783Z,49.39
2018-05-09T03:20:15.696Z,49.49
2018-05-09T03:21:15.600Z,49.63
2018-05-09T03:22:15.601Z,48.98
2018-05-09T03:23:15.638Z,49.61
2018-05-09T03:24:15.612Z,49.29
2018-05-09T03:25:15.609Z,49.55
2018-05-09T03:26:15.591Z,49.24
2018-05-09T03:27:15.650Z,49.48
2018-05-09T03:28:15.595Z,49.54
2018-05-09T03:29:15.685Z,49.68
2018-05-09T03:30:15.656Z,49.64
2018-05-09T03:31:15.700Z,49.71
2018-05-09T03:32:15.607Z,49.85
2018-05-09T03:33:15.692Z,50.09
2018-05-09T03:34:15.681Z,49.87
2018-05-09T03:35:15.594Z,49.68
2018-05-09T03:36:15.638Z,49.52
2018-05-09T03:37:15.632Z,49.81
2018-05-09T03:38:15.621Z,50.36
2018-05-09T03:39:15.654Z,50.14
2018-05-09T03:40:15.672Z,50.42
2018-05-09T03:41:15.626Z,50.16
2018-05-09T03:42:15.618Z,50.22
2018-05-09T03:43:15.650Z,50.02
2018-05-09T03:44:15.647Z,49.95
2018-05-09T03:45:15.827Z,49.97
2018-05-09T03:46:15.678Z,50.48
2018-05-09T03:47:15.639Z,50.48
2018-05-09T03:48:15.702Z,50.64
2018-05-09T03:49:15.815Z,50.36
2018-05-09T03:50:15.719Z,50.5
2018-05-09T03:51:15.710Z,50.84
2018-05-09T03:52:15.760Z,50.37
2018-05-09T03:53:15.943Z,50.82
2018-05-09T03:54:15.834Z,50.6
2018-05-09T03:55:15.649Z,51.07
2018-05-09T03:56:15.695Z,51.02
2018-05-09T03:57:15.750Z,50.79
2018-05-09T03:58:15.647Z,50.74
2018-05-09T03:59:15.667Z,50.81
2018-05-09T04:00:15.702Z,51.02
2018-05-09T04:01:15.784Z,50.84
2018-05-09T04:02:15.641Z,51.14
2018-05-09T04:03:15.786Z,50.94
2018-05-09T04:04:15.691Z,51.02
2018-05-09T04:05:15.810Z,51.1
2018-05-09T04:06:15.800Z,50.68
2018-05-09T04:07:15.666Z,51.03
2018-05-09T04:08:15.757Z,50.76
2018-05-09T04:09:15.674Z,51.33
2018-05-09T04:10:15.653Z,51.57
2018-05-09T04:11:15.628Z,51
2018-05-09T04:12:15.881Z,51.23
2018-05-09T04:13:16.100Z,51.49
2018-05-09T04:14:15.661Z,51.29
2018-05-09T04:15:15.725Z,51.55
2018-05-09T04:16:15.628Z,51.85
2018-05-09T04:17:15.621Z,51.54
2018-05-09T04:18:15.678Z,51.71
2018-05-09T04:19:15.656Z,51.38
2018-05-09T04:20:15.645Z,51.59
2018-05-09T04:21:15.761Z,51.34
2018-05-09T04:22:15.746Z,51.89
2018-05-09T04:23:15.839Z,51.36
2018-05-09T04:24:15.753Z,51.61
2018-05-09T04:25:15.723Z,51.76
2018-05-09T04:26:15.621Z,51.65
2018-05-09T04:27:15.771Z,51.79
2018-05-09T04:28:16.080Z,51.7
2018-05-09T04:29:15.672Z,51.89
2018-05-09T04:30:15.700Z,51.67
2018-05-09T04:31:15.668Z,51.42
2018-05-09T04:32:15.665Z,51.38
2018-05-09T04:33:15.640Z,52.39
2018-05-09T04:34:15.653Z,51.59
2018-05-09T04:35:15.649Z,51.47
2018-05-09T04:36:15.866Z,51.81
2018-05-09T04:37:15.687Z,52.03
2018-05-09T04:38:15.692Z,51.77
2018-05-09T04:39:15.699Z,52.14
2018-05-09T04:40:15.721Z,51.64
2018-05-09T04:41:15.800Z,52
2018-05-09T04:42:15.732Z,51.86
2018-05-09T04:43:15.656Z,52.42
2018-05-09T04:44:15.747Z,52.61
2018-05-09T04:45:15.689Z,52.27
2018-05-09T04:46:15.672Z,51.83
2018-05-09T04:47:15.769Z,52.37
2018-05-09T04:48:15.647Z,52.3
2018-05-09T04:49:16.065Z,51.95
2018-05-09T04:50:15.705Z,51.94
2018-05-09T04:51:15.689Z,51.64
2018-05-09T04:52:15.646Z,52.69
2018-05-09T04:53:15.702Z,52.78
2018-05-09T04:54:15.687Z,52.2
2018-05-09T04:55:15.785Z,52.26
2018-05-09T04:56:15.572Z,52.09
2018-05-09T04:57:15.601Z,51.65
2018-05-09T04:58:15.642Z,51.64
2018-05-09T04:59:15.753Z,52.17
2018-05-09T05:00:15.643Z,52.16
2018-05-09T05:01:15.609Z,52
2018-05-09T05:02:15.628Z,53.98
2018-05-09T05:03:15.625Z,54.06
2018-05-09T05:04:15.600Z,54.5
2018-05-09T05:05:15.645Z,53.74
2018-05-09T05:06:15.720Z,54.78
2018-05-09T05:07:15.623Z,56.01
2018-05-09T05:08:15.790Z,57.17
2018-05-09T05:09:15.626Z,56.71
2018-05-09T05:10:15.689Z,57.04
2018-05-09T05:11:15.635Z,56.75
2018-05-09T05:12:15.621Z,57.47
2018-05-09T05:13:15.616Z,58.33
2018-05-09T05:14:16.164Z,57.88
2018-05-09T05:15:15.683Z,57.37
2018-05-09T05:16:15.645Z,56.39
2018-05-09T05:17:15.653Z,57.64
2018-05-09T05:18:15.634Z,58.06
2018-05-09T05:19:15.720Z,57.29
2018-05-09T05:20:15.651Z,57.11
2018-05-09T05:21:15.681Z,57.14
2018-05-09T05:22:15.776Z,56.6
2018-05-09T05:23:15.609Z,57.08
2018-05-09T05:24:15.669Z,56.51
2018-05-09T05:25:15.629Z,56.03
2018-05-09T05:26:15.631Z,56.53
2018-05-09T05:27:15.703Z,56.18
2018-05-09T05:28:15.661Z,56.65
2018-05-09T05:29:15.617Z,56.96
2018-05-09T05:30:15.616Z,57.25
2018-05-09T05:31:15.594Z,56.87
2018-05-09T05:32:15.632Z,57.51
2018-05-09T05:33:15.646Z,57.83
2018-05-09T05:34:15.635Z,58.56
2018-05-09T05:35:15.639Z,58.54
2018-05-09T05:36:15.619Z,58.14
2018-05-09T05:37:15.711Z,57.58
2018-05-09T05:38:16.049Z,57.67
2018-05-09T05:39:15.636Z,57.05
2018-05-09T05:40:15.624Z,57.36
2018-05-09T05:41:15.636Z,57.27
2018-05-09T05:42:15.641Z,56.43
2018-05-09T05:43:15.690Z,56.73
2018-05-09T05:44:15.656Z,55.83
2018-05-09T05:45:16.800Z,56.28
2018-05-09T05:46:15.652Z,56.59
2018-05-09T05:47:15.662Z,57
2018-05-09T05:48:15.689Z,56.36
2018-05-09T05:49:15.689Z,56.98
2018-05-09T05:50:15.694Z,56.02
2018-05-09T05:51:15.629Z,56.89
2018-05-09T05:52:15.642Z,56.56
2018-05-09T05:53:15.624Z,56.12
2018-05-09T05:54:15.645Z,56.42
2018-05-09T05:55:15.676Z,56.46
2018-05-09T05:56:15.634Z,55.76
2018-05-09T05:57:15.655Z,57.16
2018-05-09T05:58:15.673Z,57.31
2018-05-09T05:59:15.679Z,57.07
2018-05-09T06:00:15.682Z,57.01
2018-05-09T06:01:15.664Z,57.11
2018-05-09T06:02:15.616Z,57.33
2018-05-09T06:03:15.780Z,57.27
2018-05-09T06:04:15.610Z,56.95
2018-05-09T06:05:15.664Z,57.43
2018-05-09T06:06:15.652Z,57.17
2018-05-09T06:07:15.653Z,57.11
2018-05-09T06:08:15.767Z,57.24
2018-05-09T06:09:15.750Z,57.82
2018-05-09T06:10:15.656Z,57.1
2018-05-09T06:11:15.696Z,56.4
2018-05-09T06:12:15.664Z,56.67
2018-05-09T06:13:15.656Z,56.03
2018-05-09T06:14:15.672Z,55.9
2018-05-09T06:15:15.686Z,55.67
2018-05-09T06:16:15.801Z,55.51
2018-05-09T06:17:15.895Z,56.49
2018-05-09T06:18:15.676Z,57.35
2018-05-09T06:19:15.638Z,56.58
2018-05-09T06:20:15.643Z,56.09
2018-05-09T06:21:15.658Z,56.42
2018-05-09T06:22:15.652Z,55.96
2018-05-09T06:23:15.661Z,55.96
2018-05-09T06:24:16.087Z,55.93
2018-05-09T06:25:15.681Z,55.49
2018-05-09T06:26:15.695Z,56.39
2018-05-09T06:27:15.655Z,56.07
2018-05-09T06:28:15.714Z,55.89
2018-05-09T06:29:15.669Z,55.51
2018-05-09T06:30:15.655Z,55.91
2018-05-09T06:31:15.702Z,56
2018-05-09T06:32:15.683Z,55.39
2018-05-09T06:33:15.653Z,55.97
2018-05-09T06:34:15.657Z,56.22
2018-05-09T06:35:15.694Z,55.24
2018-05-09T06:36:15.694Z,55.76
2018-05-09T06:37:15.653Z,55.91
2018-05-09T06:38:15.649Z,55.25
2018-05-09T06:39:15.658Z,55.55
2018-05-09T06:40:15.657Z,55.96
2018-05-09T06:41:15.672Z,55.36
2018-05-09T06:42:15.753Z,55.36
2018-05-09T06:43:15.872Z,54.72
2018-05-09T06:44:15.649Z,54.02
2018-05-09T06:45:15.711Z,54.23
2018-05-09T06:46:15.690Z,53.62
2018-05-09T06:47:15.720Z,53.42
2018-05-09T06:48:15.676Z,53.19
2018-05-09T06:49:15.681Z,54.92
2018-05-09T06:50:15.685Z,54.55
2018-05-09T06:51:15.645Z,53.84
2018-05-09T06:52:15.663Z,54.95
2018-05-09T06:53:15.750Z,54.08
2018-05-09T06:54:15.669Z,54.44
2018-05-09T06:55:15.661Z,54.33
2018-05-09T06:56:15.646Z,54.26
2018-05-09T06:57:15.675Z,54.67
2018-05-09T06:58:15.886Z,54.12
2018-05-09T06:59:15.712Z,53.8
2018-05-09T07:00:15.662Z,53.85
2018-05-09T07:01:15.665Z,53.42
2018-05-09T07:02:15.675Z,53.78
2018-05-09T07:03:15.667Z,53.41
2018-05-09T07:04:15.689Z,53.3
2018-05-09T07:05:15.688Z,53.64
2018-05-09T07:06:16.386Z,53.37
2018-05-09T07:07:15.658Z,53.41
2018-05-09T07:08:15.665Z,52.96
2018-05-09T07:09:15.694Z,52.95
2018-05-09T07:10:15.668Z,52.87
2018-05-09T07:11:15.673Z,51.98
2018-05-09T07:12:15.672Z,52
2018-05-09T07:13:15.692Z,52.09
2018-05-09T07:14:15.678Z,52.67
2018-05-09T07:15:15.709Z,52.24
2018-05-09T07:16:15.769Z,52.01
2018-05-09T07:17:15.669Z,52.32
2018-05-09T07:18:15.889Z,51.83
2018-05-09T07:19:15.703Z,52.26
2018-05-09T07:20:15.664Z,52.15
2018-05-09T07:21:15.698Z,52.27
2018-05-09T07:22:16.136Z,51.68
2018-05-09T07:23:15.980Z,51.53
2018-05-09T07:24:15.971Z,51.65
2018-05-09T07:25:15.674Z,51.64
2018-05-09T07:26:15.684Z,51.48
2018-05-09T07:27:15.694Z,51.26
2018-05-09T07:28:15.814Z,51.64
2018-05-09T07:29:15.790Z,51.63
2018-05-09T07:30:15.975Z,51.58
2018-05-09T07:31:15.711Z,51.85
2018-05-09T07:32:15.716Z,51.44
2018-05-09T07:33:15.729Z,51.32
2018-05-09T07:34:15.684Z,51.47
2018-05-09T07:35:15.699Z,51.76
2018-05-09T07:36:15.688Z,51.63
2018-05-09T07:37:16.031Z,51.18
2018-05-09T07:38:15.712Z,51.26
2018-05-09T07:39:15.696Z,50.92
2018-05-09T07:40:15.835Z,50.89
2018-05-09T07:41:15.717Z,50.95
2018-05-09T07:42:15.993Z,51.54
2018-05-09T07:43:15.743Z,51.55
2018-05-09T07:44:15.728Z,51.17
2018-05-09T07:45:15.780Z,50.8
2018-05-09T07:46:15.722Z,51.13
2018-05-09T07:47:15.748Z,51.04
2018-05-09T07:48:15.715Z,51.05
2018-05-09T07:49:15.741Z,50.77
2018-05-09T07:50:15.688Z,50.33
2018-05-09T07:51:15.734Z,50.55
2018-05-09T07:52:15.703Z,50.31
2018-05-09T07:53:15.936Z,50.51
2018-05-09T07:54:15.711Z,50.25
2018-05-09T07:55:15.725Z,50.32
2018-05-09T07:56:15.693Z,49.88
2018-05-09T07:57:15.736Z,50.09
2018-05-09T07:58:15.696Z,50.01
2018-05-09T07:59:16.445Z,49.91
2018-05-09T08:00:15.690Z,49.54
2018-05-09T08:01:15.718Z,49.08
2018-05-09T08:02:15.733Z,48.97
2018-05-09T08:03:15.695Z,48.83
2018-05-09T08:04:15.711Z,48.87
2018-05-09T08:05:15.715Z,49.16
2018-05-09T08:06:15.714Z,49.07
2018-05-09T08:07:15.709Z,48.81
2018-05-09T08:08:15.699Z,48.32
2018-05-09T08:09:15.775Z,48.66
2018-05-09T08:10:15.730Z,48.62
2018-05-09T08:11:15.733Z,48.47
2018-05-09T08:12:16.049Z,48.6
2018-05-09T08:13:15.717Z,48.33
2018-05-09T08:14:15.709Z,48.72
2018-05-09T08:15:15.704Z,48.84
2018-05-09T08:16:15.739Z,48.51
2018-05-09T08:17:15.729Z,47.94
2018-05-09T08:18:15.707Z,48.18
2018-05-09T08:19:15.732Z,48.01
2018-05-09T08:20:15.813Z,48.38
2018-05-09T08:21:15.725Z,48.91
2018-05-09T08:22:15.759Z,49.13
2018-05-09T08:23:15.763Z,48.77
2018-05-09T08:24:15.771Z,48.35
2018-05-09T08:25:15.749Z,48.77
2018-05-09T08:26:15.737Z,48.54
2018-05-09T08:27:15.770Z,48.58
2018-05-09T08:28:15.822Z,48.64
2018-05-09T08:29:15.757Z,48.53
2018-05-09T08:30:16.000Z,49.03
2018-05-09T08:31:15.719Z,48.71
2018-05-09T08:32:15.797Z,48.6
2018-05-09T08:33:15.887Z,48.17
2018-05-09T08:34:15.757Z,48.17
2018-05-09T08:35:15.771Z,47.89
2018-05-09T08:36:16.263Z,47.75
2018-05-09T08:37:15.741Z,48.24
2018-05-09T08:38:15.742Z,47.87
2018-05-09T08:39:15.759Z,48.16
2018-05-09T08:40:15.745Z,47.65
2018-05-09T08:41:15.759Z,48.03
2018-05-09T08:42:15.759Z,47.91
2018-05-09T08:43:16.281Z,47.47
2018-05-09T08:44:15.780Z,48.03
2018-05-09T08:45:15.746Z,47.86
2018-05-09T08:46:15.905Z,47.61
2018-05-09T08:47:15.719Z,47.8
2018-05-09T08:48:15.725Z,47.44
2018-05-09T08:49:16.037Z,47.34
2018-05-09T08:50:15.752Z,47.14
2018-05-09T08:51:15.735Z,47.47
2018-05-09T08:52:15.763Z,47.33
2018-05-09T08:53:15.815Z,47.41
2018-05-09T08:54:15.733Z,48.16
2018-05-09T08:55:15.778Z,47.32
2018-05-09T08:56:15.764Z,47.41
2018-05-09T08:57:15.739Z,47.59
2018-05-09T08:58:15.773Z,47.91
2018-05-09T08:59:15.779Z,48.06
2018-05-09T09:00:15.882Z,47.73
2018-05-09T09:01:15.758Z,47.5
2018-05-09T09:02:15.759Z,47.8
2018-05-09T09:03:15.782Z,47.92
2018-05-09T09:04:16.054Z,47.23
2018-05-09T09:05:15.765Z,47.92
2018-05-09T09:06:15.757Z,47.84
2018-05-09T09:07:15.756Z,47.7
2018-05-09T09:08:15.801Z,48.52
2018-05-09T09:09:15.816Z,48.37
2018-05-09T09:10:15.753Z,48.04
2018-05-09T09:11:15.798Z,47.57
2018-05-09T09:12:15.809Z,47.55
2018-05-09T09:13:15.770Z,47.69
2018-05-09T09:14:15.753Z,47.35
2018-05-09T09:15:16.019Z,47.62
2018-05-09T09:16:15.829Z,47.67
2018-05-09T09:17:15.770Z,47.42
2018-05-09T09:18:15.812Z,47.48
2018-05-09T09:19:15.884Z,47.36
2018-05-09T09:20:15.752Z,47.27
2018-05-09T09:21:15.752Z,47.2
2018-05-09T09:22:15.773Z,47.17
2018-05-09T09:23:15.801Z,47.57
2018-05-09T09:24:15.746Z,47.63
2018-05-09T09:25:15.744Z,47.44
2018-05-09T09:26:15.786Z,47.38
2018-05-09T09:27:15.765Z,47.06
2018-05-09T09:28:15.815Z,47.18
2018-05-09T09:29:16.250Z,47
2018-05-09T09:30:15.762Z,47.63
2018-05-09T09:31:15.761Z,46.74
2018-05-09T09:32:15.769Z,47.24
2018-05-09T09:33:15.759Z,47.34
2018-05-09T09:34:15.745Z,46.74
2018-05-09T09:35:15.755Z,46.55
2018-05-09T09:36:15.794Z,46.04
2018-05-09T09:37:15.750Z,47.04
2018-05-09T09:38:15.809Z,47.09
2018-05-09T09:39:15.766Z,46.79
2018-05-09T09:40:15.793Z,46.67
2018-05-09T09:41:15.765Z,47.05
2018-05-09T09:42:15.772Z,46.2
2018-05-09T09:43:15.773Z,46.15
2018-05-09T09:44:15.752Z,46.61
2018-05-09T09:45:15.772Z,45.86
2018-05-09T09:46:15.762Z,45.73
2018-05-09T09:47:15.746Z,46.76
2018-05-09T09:48:15.781Z,45.99
2018-05-09T09:49:15.784Z,45.06
2018-05-09T09:50:15.794Z,45.23
2018-05-09T09:51:15.762Z,45.86
2018-05-09T09:52:15.749Z,45.32
2018-05-09T09:53:15.871Z,45.71
2018-05-09T09:54:15.823Z,45.29
2018-05-09T09:55:15.763Z,44.88
2018-05-09T09:56:15.769Z,45.03
2018-05-09T09:57:15.765Z,44.64
2018-05-09T09:58:15.764Z,43.88
2018-05-09T09:59:15.761Z,43.87
2018-05-09T10:00:15.835Z,44.63
2018-05-09T10:01:15.826Z,44.96
2018-05-09T10:02:15.805Z,44.34
2018-05-09T10:03:15.793Z,44.39
2018-05-09T10:04:15.807Z,43.6
2018-05-09T10:05:15.818Z,43.96
2018-05-09T10:06:15.821Z,43.5
2018-05-09T10:07:15.761Z,43.97
2018-05-09T10:08:15.794Z,44.13
2018-05-09T10:09:15.807Z,44.26
2018-05-09T10:10:15.875Z,43.55
2018-05-09T10:11:15.793Z,42.95
2018-05-09T10:12:15.806Z,42.46
2018-05-09T10:13:15.789Z,42.47
2018-05-09T10:14:15.780Z,42.99
2018-05-09T10:15:15.827Z,43.09
2018-05-09T10:16:16.122Z,43.12
2018-05-09T10:17:15.843Z,43.05
2018-05-09T10:18:15.779Z,42.51
2018-05-09T10:19:16.185Z,42.64
2018-05-09T10:20:15.799Z,42.81
2018-05-09T10:21:15.804Z,43.3
2018-05-09T10:22:15.785Z,42.63
2018-05-09T10:23:16.202Z,42.03
2018-05-09T10:24:15.968Z,41.95
2018-05-09T10:25:15.828Z,42.41
2018-05-09T10:26:15.839Z,41.83
2018-05-09T10:27:15.775Z,41.18
2018-05-09T10:28:15.784Z,41.7
2018-05-09T10:29:15.819Z,41.32
2018-05-09T10:30:15.867Z,41.69
2018-05-09T10:31:15.794Z,42.31
2018-05-09T10:32:15.790Z,41.5
2018-05-09T10:33:15.840Z,42.11
2018-05-09T10:34:15.783Z,42.69
2018-05-09T10:35:15.807Z,40.46
2018-05-09T10:36:15.931Z,40.2
2018-05-09T10:37:15.803Z,39.43
2018-05-09T10:38:15.814Z,39.76
2018-05-09T10:39:15.807Z,39.53
2018-05-09T10:40:15.831Z,39.68
2018-05-09T10:41:15.813Z,39.63
2018-05-09T10:42:15.808Z,40.46
2018-05-09T10:43:15.819Z,39.71
2018-05-09T10:44:15.789Z,40.58
2018-05-09T10:45:15.808Z,40.62
2018-05-09T10:46:15.795Z,40.12
2018-05-09T10:47:15.818Z,40.59
2018-05-09T10:48:15.792Z,40.2
2018-05-09T10:49:15.843Z,40.2
2018-05-09T10:50:15.810Z,40.58
2018-05-09T10:51:15.809Z,41.05
2018-05-09T10:52:15.817Z,41.57
2018-05-09T10:53:15.961Z,41.56
2018-05-09T10:54:15.863Z,41.33
2018-05-09T10:55:15.825Z,40.85
2018-05-09T10:56:15.810Z,40.56
2018-05-09T10:57:16.146Z,40.36
2018-05-09T10:58:15.912Z,40.59
2018-05-09T10:59:15.833Z,40.85
2018-05-09T11:00:15.806Z,40.57
2018-05-09T11:01:15.982Z,40.14
2018-05-09T11:02:15.943Z,40.72
2018-05-09T11:03:16.066Z,40.59
2018-05-09T11:04:15.836Z,40.8
2018-05-09T11:05:15.872Z,40.59
2018-05-09T11:06:15.799Z,40.62
2018-05-09T11:07:15.861Z,40.89
2018-05-09T11:08:16.009Z,40.41
2018-05-09T11:09:15.827Z,40.73
2018-05-09T11:10:15.825Z,40.9
2018-05-09T11:11:15.892Z,40
2018-05-09T11:12:15.894Z,39.59
2018-05-09T11:13:15.908Z,39.93
2018-05-09T11:14:16.616Z,40.08
2018-05-09T11:15:15.965Z,40.15
2018-05-09T11:16:15.994Z,40.15
2018-05-09T11:17:15.885Z,40.57
2018-05-09T11:18:16.119Z,39.86
2018-05-09T11:19:15.886Z,40
2018-05-09T11:20:15.910Z,40.29
2018-05-09T11:21:15.835Z,40.01
2018-05-09T11:22:15.937Z,41.32
2018-05-09T11:23:15.841Z,40.19
2018-05-09T11:24:16.167Z,39.62
2018-05-09T11:25:16.021Z,39.8
2018-05-09T11:26:15.868Z,38.78
2018-05-09T11:27:15.991Z,38.74
2018-05-09T11:28:16.004Z,39.36
2018-05-09T11:29:16.017Z,40.03
2018-05-09T11:30:15.863Z,40.31
2018-05-09T11:31:16.134Z,39.14
2018-05-09T11:32:16.034Z,39.73
2018-05-09T11:33:15.988Z,39.2
2018-05-09T11:34:15.828Z,39.24
2018-05-09T11:35:15.838Z,39.31
2018-05-09T11:36:15.838Z,40.18
2018-05-09T11:37:15.884Z,39.94
2018-05-09T11:38:15.981Z,39.38
2018-05-09T11:39:15.994Z,39.38
2018-05-09T11:40:15.824Z,39.21
2018-05-09T11:41:15.893Z,39.02
2018-05-09T11:42:15.936Z,39.13
2018-05-09T11:43:15.845Z,39.22
2018-05-09T11:44:15.843Z,39.36
2018-05-09T11:45:15.851Z,37.92
2018-05-09T11:46:15.844Z,38.09
2018-05-09T11:47:15.866Z,38.5
2018-05-09T11:48:15.856Z,39.07
2018-05-09T11:49:15.906Z,38.98
2018-05-09T11:50:15.846Z,39.64
2018-05-09T11:51:15.836Z,39.93
2018-05-09T11:52:15.828Z,40.03
2018-05-09T11:53:16.776Z,40.45
2018-05-09T11:54:15.843Z,41.01
2018-05-09T11:55:15.863Z,39.9
2018-05-09T11:56:15.929Z,39.58
2018-05-09T11:57:15.868Z,39.84
2018-05-09T11:58:16.042Z,39.68
2018-05-09T11:59:15.859Z,40.02
2018-05-09T12:00:15.941Z,39.45
2018-05-09T12:01:15.872Z,39.67
2018-05-09T12:02:16.257Z,39.58
2018-05-09T12:03:15.919Z,39.69
2018-05-09T12:04:15.850Z,39.63
2018-05-09T12:05:15.960Z,39.96
2018-05-09T12:06:15.899Z,39.43
2018-05-09T12:07:15.862Z,39.17
2018-05-09T12:08:15.965Z,38.95
2018-05-09T12:09:15.951Z,38.95
2018-05-09T12:10:16.257Z,38.96
2018-05-09T12:11:15.881Z,39.15
2018-05-09T12:12:15.989Z,38.82
2018-05-09T12:13:15.874Z,39.33
2018-05-09T12:14:15.963Z,39.14
2018-05-09T12:15:15.878Z,39.25
2018-05-09T12:16:15.875Z,39.06
2018-05-09T12:17:15.908Z,39.4
2018-05-09T12:18:15.880Z,39.1
2018-05-09T12:19:15.967Z,38.93
2018-05-09T12:20:15.856Z,38.7
2018-05-09T12:21:15.900Z,38.95
2018-05-09T12:22:16.022Z,38.91
2018-05-09T12:23:15.863Z,38.87
2018-05-09T12:24:15.880Z,39.28
2018-05-09T12:25:15.880Z,38.91
2018-05-09T12:26:15.854Z,38.72
2018-05-09T12:27:15.863Z,38.87
2018-05-09T12:28:15.866Z,39.88
2018-05-09T12:29:16.050Z,39.23
2018-05-09T12:30:16.007Z,39.15
2018-05-09T12:31:15.928Z,38.46
2018-05-09T12:32:15.933Z,38.31
2018-05-09T12:33:15.985Z,37.98
2018-05-09T12:34:15.908Z,38.17
2018-05-09T12:35:15.925Z,37.49
2018-05-09T12:36:15.902Z,37.65
2018-05-09T12:37:15.871Z,38.3
2018-05-09T12:38:15.951Z,37.42
2018-05-09T12:39:15.880Z,37.09
2018-05-09T12:40:16.141Z,37.67
2018-05-09T12:41:16.038Z,36.85
2018-05-09T12:42:15.975Z,36.56
2018-05-09T12:43:15.867Z,37.63
2018-05-09T12:44:15.931Z,36.8
2018-05-09T12:45:15.992Z,36.95
2018-05-09T12:46:16.021Z,36.82
2018-05-09T12:47:16.027Z,37.47
2018-05-09T12:48:15.947Z,37.41
2018-05-09T12:49:15.890Z,37.4
2018-05-09T12:50:15.910Z,37.66
2018-05-09T12:51:15.865Z,37.89
2018-05-09T12:52:15.861Z,37.17
2018-05-09T12:53:15.951Z,37.33
2018-05-09T12:54:15.931Z,37.19
2018-05-09T12:55:15.901Z,35.59